This is the latest recevied weather packets stored in our database for station/object UA1ZPU-15. If no packets are shown the sender has not sent any weather packets the latest 1 day(s).
| Time | Temp. | Humidity | Pressure | Rain* | Wind** | Luminosity | Snow |
|---|---|---|---|---|---|---|---|
| 1778095332 | -1.67° C | 51% | 974.9 hPa | - | - | - | - |
| 1778094729 | -1.67° C | 47% | 974.8 hPa | - | - | - | - |
| 1778094126 | -1.67° C | 41% | 974.7 hPa | - | - | - | - |
| 1778093524 | -1.11° C | 37% | 974.7 hPa | - | - | - | - |
| 1778092320 | 0.56° C | 26% | 974.6 hPa | - | - | - | - |
| 1778089012 | 1.67° C | 20% | 974.2 hPa | - | - | - | - |
| 1778071170 | 2.78° C | 25% | 971.7 hPa | - | - | - | - |
| 1778068935 | 3.33° C | 26% | 971.2 hPa | - | - | - | - |
| 1778058361 | 2.78° C | 36% | 969.1 hPa | - | - | - | - |
| 1778057758 | 2.22° C | 42% | 969 hPa | - | - | - | - |
| 1778057155 | 1.67° C | 51% | 969 hPa | - | - | - | - |
| 1778056552 | 1.67° C | 54% | 968.7 hPa | - | - | - | - |
| 1778055949 | 1.11° C | 53% | 968.6 hPa | - | - | - | - |
| 1778054745 | 1.67° C | 50% | 968.3 hPa | - | - | - | - |
| 1778053537 | 1.11° C | 52% | 968 hPa | - | - | - | - |
| 1778052933 | 1.11° C | 53% | 968.1 hPa | - | - | - | - |
| 1778052331 | 1.11° C | 53% | 967.9 hPa | - | - | - | - |
| 1778049919 | 1.11° C | 52% | 967.3 hPa | - | - | - | - |
| 1778049391 | 1.11° C | 54% | 967.2 hPa | - | - | - | - |
| 1778049316 | 1.11° C | 52% | 967.2 hPa | - | - | - | - |
| 1778048696 | 1.11° C | 51% | 967 hPa | - | - | - | - |
| 1778048092 | 1.11° C | 58% | 966.9 hPa | - | - | - | - |
| 1778047490 | 0.56° C | 57% | 966.8 hPa | - | - | - | - |
| 1778046888 | 0.56° C | 59% | 966.7 hPa | - | - | - | - |
* Rain since midnight (hover to see other rain measurements)
** Current wind speed in m/s (hover to see current wind gust speed)